Main page
METAR-TAF:

METAR-TAF

Airports :

Waddington, England

RAF Waddington

latitude: 53-10N, longitude: 000-31W, elevation: 68 m

Current weather observation

The report was made 56 minutes ago, at 09:50 UTC
Wind 8 kt from the West/Northwest
Temperature 3°C
Humidity 87%
Pressure 1028 hPa
Visibility 10 km or more
no clouds below 1500 m and no cumulonimbus

METAR: EGXW 180950Z 30008KT CAVOK 03/01 Q1028 BLU NOSIG

Time: 10:46 (10:46 UTC)

Forecast

The report was made 2 hours and 56 minutes ago, at 07:50 UTC
Forecast valid from 18 at 09 UTC to 19 at 03 UTC
Wind 7 kt from the West/Northwest
Visibility 10 km or more
no clouds below 1500 m and no cumulonimbus
Becoming
from 18 at 17 UTC to 18 at 20 UTC
Visibility: 3000 m
mist
Becoming
from 18 at 20 UTC to 18 at 23 UTC
Visibility: 0500 m
fog

TAF: EGXW 180750Z 1809/1903 30007KT CAVOK BECMG 1817/1820 3000 BR BECMG 1820/1823 0500 FG VV///

Weather observations and forecasts of more than 4000 airports (METAR and TAF reports).

The available stations are represented by yellow and red dots on the map.

Hover mouse over dot to see the name of the station.

Then click to see weather observations and forecasts.

To change the map : click on the green buttons with a black cross to zoom in, on the green button with a dash to zoom out, or on the green arrows for adjacent maps.


METAR-TAF: